Saint-Ours, Canada
Current Conditions -  °F | °C
As of 1:00 PM on Friday 21 Nov 2014 (Local Time) from CYHU Reporting Station
Clear Clear  
Wind Chill:   Ceiling: Unl
Heat Index: 23°   Visibility: 9mi
Dew Point:   Wind: 18mph
Humidity: 50%   Direction: 270°W
Pressure: 30.2"   Gusts: 25mph
Location:  45.88°N, 73.15°W
Report Text: CYHU 211800Z AUTO 27016G22KT 9SM CLR M05/M14 A3020 RMK SLP228
Loading
Personal Weather Stations






























Interactive Weather Map New forecast layout! Learn more

10-Day Weather Forecast

Advertisements
Track Severe Weather on mobile